createdAt,value
2022-12-22T00:00:32.687Z,0.70
2022-12-22T00:03:23.433Z,0.70
2022-12-22T00:06:16.905Z,0.70
2022-12-22T00:09:14.258Z,0.60
2022-12-22T00:12:02.455Z,0.70
2022-12-22T00:14:50.646Z,0.60
2022-12-22T00:17:42.225Z,0.50
2022-12-22T00:20:37.661Z,0.50
2022-12-22T00:23:30.639Z,0.50
2022-12-22T00:26:19.103Z,0.40
2022-12-22T00:29:14.853Z,0.40
2022-12-22T00:32:05.934Z,0.40
2022-12-22T00:34:56.956Z,0.40
2022-12-22T00:38:05.563Z,0.30
2022-12-22T00:40:58.351Z,0.30
2022-12-22T00:43:46.580Z,0.30
2022-12-22T00:46:40.726Z,0.30
2022-12-22T00:49:32.028Z,0.20
2022-12-22T00:52:23.227Z,0.50
2022-12-22T00:55:14.111Z,0.20
2022-12-22T00:58:05.505Z,0.30
2022-12-22T01:00:57.144Z,0.30
2022-12-22T01:03:48.801Z,0.40
2022-12-22T01:06:40.080Z,0.40
2022-12-22T01:09:34.509Z,0.40
2022-12-22T01:12:27.794Z,0.40
2022-12-22T01:15:20.627Z,0.40
2022-12-22T01:18:11.979Z,0.40
2022-12-22T01:21:05.804Z,0.40
2022-12-22T01:23:53.898Z,0.40
2022-12-22T01:26:48.449Z,0.40
2022-12-22T01:29:39.979Z,0.40
2022-12-22T01:32:33.856Z,0.40
2022-12-22T01:35:26.145Z,0.40
2022-12-22T01:38:17.606Z,0.40
2022-12-22T01:41:05.705Z,0.90
2022-12-22T01:43:53.891Z,0.40
2022-12-22T01:46:48.655Z,0.50
2022-12-22T01:49:43.916Z,0.50
2022-12-22T01:52:35.287Z,0.60
2022-12-22T01:55:27.414Z,0.60
2022-12-22T01:58:18.990Z,0.70
2022-12-22T02:01:10.645Z,0.70
2022-12-22T02:04:01.884Z,0.70
2022-12-22T02:07:00.330Z,0.70
2022-12-22T02:10:04.494Z,0.60
2022-12-22T02:13:05.799Z,0.50
2022-12-22T02:16:17.968Z,0.50
2022-12-22T02:19:28.844Z,0.60
2022-12-22T02:22:20.286Z,0.60
2022-12-22T02:25:25.655Z,0.60
2022-12-22T02:28:17.119Z,0.60
2022-12-22T02:31:11.274Z,0.60
2022-12-22T02:34:06.060Z,0.90
2022-12-22T02:37:16.004Z,0.70
2022-12-22T02:40:16.313Z,0.70
2022-12-22T02:43:28.134Z,0.70
2022-12-22T02:46:25.762Z,0.70
2022-12-22T02:49:19.445Z,0.80
2022-12-22T02:52:12.229Z,0.80
2022-12-22T02:55:03.587Z,0.80
2022-12-22T02:57:55.265Z,0.80
2022-12-22T03:00:48.171Z,0.80
2022-12-22T03:03:41.208Z,0.70
2022-12-22T03:06:32.629Z,0.70
2022-12-22T03:09:30.259Z,0.70
2022-12-22T03:12:23.429Z,0.70
2022-12-22T03:15:11.822Z,0.70
2022-12-22T03:17:59.331Z,0.70
2022-12-22T03:20:47.578Z,0.70
2022-12-22T03:23:38.793Z,0.70
2022-12-22T03:26:20.373Z,0.70
2022-12-22T03:28:53.258Z,0.60
2022-12-22T03:31:33.932Z,0.50
2022-12-22T03:34:06.188Z,0.50
2022-12-22T03:36:43.899Z,0.40
2022-12-22T03:39:16.309Z,0.40
2022-12-22T03:42:04.938Z,0.30
2022-12-22T03:44:56.934Z,0.30
2022-12-22T03:47:35.658Z,0.20
2022-12-22T03:50:13.873Z,0.20
2022-12-22T03:52:52.308Z,0.20
2022-12-22T03:55:28.262Z,0.30
2022-12-22T03:58:07.109Z,0.30
2022-12-22T04:00:46.948Z,0.30
2022-12-22T04:03:26.133Z,0.30
2022-12-22T04:06:05.329Z,1.20
2022-12-22T04:08:44.101Z,0.40
2022-12-22T04:11:32.568Z,0.30
2022-12-22T04:14:13.986Z,0.40
2022-12-22T04:16:50.085Z,0.20
2022-12-22T04:19:27.941Z,0.20
2022-12-22T04:22:06.535Z,0.20
2022-12-22T04:24:43.124Z,0.40
2022-12-22T04:27:24.384Z,0.20
2022-12-22T04:30:00.364Z,0.90
2022-12-22T04:32:39.147Z,0.20
2022-12-22T04:35:15.353Z,0.20
2022-12-22T04:37:53.714Z,0.20
2022-12-22T04:40:29.167Z,0.20
2022-12-22T04:43:07.257Z,0.30
2022-12-22T04:45:42.441Z,0.30
2022-12-22T04:48:24.074Z,0.30
2022-12-22T04:51:00.499Z,0.30
2022-12-22T04:53:37.278Z,0.30
2022-12-22T04:56:17.883Z,0.40
2022-12-22T04:58:51.296Z,0.30
2022-12-22T05:01:29.767Z,0.30
2022-12-22T05:04:05.728Z,0.30
2022-12-22T05:09:32.995Z,0.30
2022-12-22T05:12:26.024Z,0.30
2022-12-22T05:14:59.236Z,0.30
2022-12-22T05:17:35.307Z,0.30
2022-12-22T05:20:16.461Z,0.30
2022-12-22T05:22:56.053Z,0.30
2022-12-22T05:25:35.297Z,0.30
2022-12-22T05:28:17.116Z,0.20
2022-12-22T05:30:56.289Z,0.20
2022-12-22T05:33:37.756Z,0.20
2022-12-22T05:36:16.015Z,0.20
2022-12-22T05:38:57.862Z,0.20
2022-12-22T05:41:52.144Z,0.20
2022-12-22T05:44:25.345Z,0.10
2022-12-22T05:47:01.403Z,0.10
2022-12-22T05:50:23.294Z,0.10
2022-12-22T05:56:05.237Z,0.10
2022-12-22T05:59:07.194Z,0.10
2022-12-22T06:01:39.898Z,0.10
2022-12-22T06:04:18.304Z,0.10
2022-12-22T06:09:51.167Z,0.10
2022-12-22T06:12:32.352Z,0.10
2022-12-22T06:18:04.244Z,0.10
2022-12-22T06:20:44.613Z,0.20
2022-12-22T06:23:43.581Z,0.10
2022-12-22T06:26:15.619Z,0.10
2022-12-22T06:28:50.747Z,1.50
2022-12-22T06:31:23.216Z,0.10
2022-12-22T06:34:01.497Z,0.10
2022-12-22T06:36:35.337Z,0.10
2022-12-22T06:39:13.443Z,0.00
2022-12-22T06:42:04.193Z,0.00
2022-12-22T06:44:43.598Z,-0.10
2022-12-22T06:47:21.750Z,-0.10
2022-12-22T06:50:00.462Z,-0.20
2022-12-22T06:52:35.940Z,-0.20
2022-12-22T06:55:08.504Z,-0.20
2022-12-22T06:57:43.936Z,-0.20
2022-12-22T07:00:40.296Z,-0.20
2022-12-22T07:03:22.253Z,-0.20
2022-12-22T07:05:59.108Z,-0.20
2022-12-22T07:08:40.525Z,-0.10
2022-12-22T07:11:14.279Z,-0.20
2022-12-22T07:13:52.600Z,-0.20
2022-12-22T07:16:29.385Z,1.30
2022-12-22T07:19:10.837Z,1.00
2022-12-22T07:21:49.214Z,1.90
2022-12-22T07:24:28.799Z,-0.10
2022-12-22T07:27:05.359Z,0.00
2022-12-22T07:29:42.463Z,-0.10
2022-12-22T07:32:27.087Z,0.00
2022-12-22T07:35:00.078Z,0.00
2022-12-22T07:37:37.015Z,0.00
2022-12-22T07:40:11.407Z,0.00
2022-12-22T07:42:50.299Z,0.00
2022-12-22T07:45:25.084Z,0.00
2022-12-22T07:48:21.387Z,0.10
2022-12-22T07:51:00.139Z,0.10
2022-12-22T07:53:38.803Z,0.10
2022-12-22T07:56:15.292Z,0.10
2022-12-22T07:58:54.335Z,0.10
2022-12-22T08:01:33.159Z,0.50
2022-12-22T08:04:09.133Z,0.40
2022-12-22T08:06:45.392Z,0.20
2022-12-22T08:09:26.103Z,0.20
2022-12-22T08:12:01.377Z,0.20
2022-12-22T08:14:33.249Z,0.40
2022-12-22T08:17:11.786Z,0.30
2022-12-22T08:19:55.876Z,0.40
2022-12-22T08:22:34.014Z,0.40
2022-12-22T08:25:09.851Z,0.40
2022-12-22T08:27:46.380Z,0.40
2022-12-22T08:30:26.108Z,0.70
2022-12-22T08:33:16.785Z,0.50
2022-12-22T08:35:55.359Z,0.50
2022-12-22T08:38:30.915Z,0.50
2022-12-22T08:41:11.823Z,0.50
2022-12-22T08:43:56.111Z,0.50
2022-12-22T08:46:25.256Z,0.40
2022-12-22T08:48:54.504Z,0.50
2022-12-22T08:51:29.868Z,0.50
2022-12-22T08:54:06.207Z,0.50
2022-12-22T08:56:39.294Z,0.50
2022-12-22T08:59:14.233Z,1.40
2022-12-22T09:01:46.875Z,0.60
2022-12-22T09:04:17.413Z,0.70
2022-12-22T09:06:52.906Z,0.70
2022-12-22T09:09:33.234Z,0.70
2022-12-22T09:12:24.294Z,0.80
2022-12-22T09:15:07.709Z,0.70
2022-12-22T09:17:43.722Z,0.80
2022-12-22T09:20:24.915Z,0.90
2022-12-22T09:22:58.315Z,0.80
2022-12-22T09:25:31.324Z,0.80
2022-12-22T09:28:10.894Z,0.90
2022-12-22T09:30:47.132Z,0.90
2022-12-22T09:33:21.654Z,0.90
2022-12-22T09:36:00.099Z,1.20
2022-12-22T09:38:38.888Z,0.80
2022-12-22T09:41:35.312Z,0.80
2022-12-22T09:44:17.576Z,0.80
2022-12-22T09:47:08.275Z,0.80
2022-12-22T09:49:48.676Z,0.80
2022-12-22T09:52:41.569Z,0.80
2022-12-22T09:55:17.874Z,0.80
2022-12-22T09:57:58.930Z,0.80
2022-12-22T10:00:38.229Z,0.80
2022-12-22T10:03:16.440Z,0.80
2022-12-22T10:06:01.376Z,0.80
2022-12-22T10:08:48.964Z,0.90
2022-12-22T10:11:27.090Z,0.90
2022-12-22T10:14:05.342Z,0.90
2022-12-22T10:16:44.226Z,1.00
2022-12-22T10:19:21.321Z,1.00
2022-12-22T10:21:54.511Z,1.00
2022-12-22T10:24:39.369Z,1.00
2022-12-22T10:27:16.385Z,1.00
2022-12-22T10:29:52.168Z,1.10
2022-12-22T10:32:33.807Z,1.20
2022-12-22T10:35:18.499Z,1.30
2022-12-22T10:37:54.411Z,1.30
2022-12-22T10:40:34.470Z,1.30
2022-12-22T10:43:12.096Z,1.30
2022-12-22T10:45:53.920Z,1.40
2022-12-22T10:48:35.156Z,1.40
2022-12-22T10:51:17.644Z,1.30
2022-12-22T10:53:57.013Z,1.40
2022-12-22T10:56:44.574Z,1.40
2022-12-22T10:59:26.379Z,1.40
2022-12-22T11:02:06.828Z,1.50
2022-12-22T11:04:46.168Z,1.60
2022-12-22T11:07:18.662Z,1.50
2022-12-22T11:09:58.166Z,1.50
2022-12-22T11:12:39.263Z,1.50
2022-12-22T11:15:21.912Z,1.60
2022-12-22T11:18:01.847Z,1.80
2022-12-22T11:23:37.362Z,1.70
2022-12-22T11:26:17.219Z,1.70
2022-12-22T11:28:55.950Z,1.70
2022-12-22T11:31:32.566Z,1.70
2022-12-22T11:34:15.867Z,1.70
2022-12-22T11:37:05.658Z,1.70
2022-12-22T11:39:44.495Z,1.70
2022-12-22T11:42:26.501Z,1.60
2022-12-22T11:45:23.325Z,1.60
2022-12-22T11:48:14.456Z,1.70
2022-12-22T11:50:58.677Z,1.70
2022-12-22T11:53:51.734Z,1.70
2022-12-22T11:56:34.000Z,1.70
2022-12-22T11:59:25.931Z,1.60
2022-12-22T12:02:02.384Z,1.70
2022-12-22T12:04:51.460Z,1.70
2022-12-22T12:07:33.373Z,1.70
2022-12-22T12:10:32.517Z,1.70
2022-12-22T12:13:33.140Z,1.70
2022-12-22T12:16:17.772Z,1.70
2022-12-22T12:18:44.647Z,1.70
2022-12-22T12:21:27.524Z,1.80
2022-12-22T12:23:55.005Z,1.80
2022-12-22T12:26:29.200Z,1.80
2022-12-22T12:28:55.822Z,1.90
2022-12-22T12:31:26.550Z,1.80
2022-12-22T12:33:54.591Z,1.90
2022-12-22T12:36:24.509Z,2.00
2022-12-22T12:39:11.904Z,2.00
2022-12-22T12:41:57.348Z,2.00
2022-12-22T12:44:27.966Z,2.00
2022-12-22T12:46:56.344Z,2.00
2022-12-22T12:49:35.442Z,2.10
2022-12-22T12:52:02.917Z,2.10
2022-12-22T12:54:29.546Z,2.10
2022-12-22T12:57:00.005Z,2.10
2022-12-22T12:59:41.742Z,2.10
2022-12-22T13:02:26.820Z,2.00
2022-12-22T13:05:04.409Z,2.10
2022-12-22T13:07:50.107Z,2.10
2022-12-22T13:10:20.663Z,2.10
2022-12-22T13:12:51.597Z,2.10
2022-12-22T13:15:28.876Z,2.10
2022-12-22T13:17:55.572Z,2.10
2022-12-22T13:20:30.305Z,2.20
2022-12-22T13:22:57.393Z,2.20
2022-12-22T13:25:24.765Z,2.40
2022-12-22T13:27:51.518Z,2.30
2022-12-22T13:30:20.059Z,2.40
2022-12-22T13:32:47.552Z,2.40
2022-12-22T13:35:31.460Z,2.40
2022-12-22T13:37:59.683Z,2.40
2022-12-22T13:40:27.166Z,2.40
2022-12-22T13:43:10.293Z,2.50
2022-12-22T13:45:37.160Z,2.50
2022-12-22T13:48:20.247Z,2.70
2022-12-22T13:50:51.348Z,2.70
2022-12-22T13:56:20.332Z,2.70
2022-12-22T13:58:47.065Z,2.70
2022-12-22T14:01:16.192Z,2.70
2022-12-22T14:04:00.034Z,2.70
2022-12-22T14:06:27.900Z,2.60
2022-12-22T14:08:54.692Z,2.50
2022-12-22T14:11:21.445Z,2.40
2022-12-22T14:13:51.011Z,2.30
2022-12-22T14:16:17.763Z,2.20
2022-12-22T14:18:44.720Z,2.10
2022-12-22T14:21:11.334Z,2.10
2022-12-22T14:23:38.821Z,2.10
2022-12-22T14:26:06.077Z,2.00
2022-12-22T14:28:38.664Z,2.00
2022-12-22T14:31:05.843Z,1.90
2022-12-22T14:33:32.984Z,1.80
2022-12-22T14:36:18.578Z,1.80
2022-12-22T14:38:47.260Z,1.80
2022-12-22T14:41:43.592Z,1.70
2022-12-22T14:44:25.552Z,1.70
2022-12-22T14:47:14.921Z,1.70
2022-12-22T14:49:47.731Z,1.80
2022-12-22T14:52:35.383Z,1.80
2022-12-22T14:55:02.558Z,1.80
2022-12-22T14:57:39.516Z,1.90
2022-12-22T15:00:24.380Z,1.90
2022-12-22T15:02:52.149Z,2.00
2022-12-22T15:05:29.018Z,2.10
2022-12-22T15:08:05.974Z,2.10
2022-12-22T15:10:50.985Z,2.20
2022-12-22T15:13:19.097Z,2.20
2022-12-22T15:15:45.732Z,2.30
2022-12-22T15:18:13.507Z,2.30
2022-12-22T15:20:40.155Z,2.30
2022-12-22T15:23:14.363Z,2.30
2022-12-22T15:25:41.127Z,2.30
2022-12-22T15:28:07.843Z,4.10
2022-12-22T15:30:34.583Z,2.40
2022-12-22T15:33:01.298Z,2.50
2022-12-22T15:35:31.472Z,2.50
2022-12-22T15:37:58.550Z,2.50
2022-12-22T15:40:25.220Z,2.70
2022-12-22T15:42:52.425Z,2.60
2022-12-22T15:45:19.332Z,2.60
2022-12-22T15:47:47.639Z,2.70
2022-12-22T15:50:15.592Z,2.70
2022-12-22T15:52:43.143Z,2.70
2022-12-22T15:55:10.165Z,2.70
2022-12-22T15:57:36.922Z,2.60
2022-12-22T16:00:03.729Z,2.60
2022-12-22T16:02:30.758Z,2.60
2022-12-22T16:04:57.475Z,2.60
2022-12-22T16:07:24.193Z,2.60
2022-12-22T16:09:50.822Z,2.60
2022-12-22T16:12:17.882Z,3.90
2022-12-22T16:14:50.614Z,2.60
2022-12-22T16:17:18.815Z,2.60
2022-12-22T16:19:45.899Z,2.70
2022-12-22T16:22:15.900Z,2.60
2022-12-22T16:24:43.869Z,2.60
2022-12-22T16:27:13.695Z,2.60
2022-12-22T16:29:44.189Z,2.70
2022-12-22T16:32:17.564Z,2.90
2022-12-22T16:34:44.767Z,3.10
2022-12-22T16:37:11.773Z,3.40
2022-12-22T16:39:38.487Z,3.70
2022-12-22T16:42:07.694Z,3.90
2022-12-22T16:44:34.474Z,4.10
2022-12-22T16:47:01.343Z,4.20
2022-12-22T16:49:28.049Z,4.30
2022-12-22T16:51:54.757Z,4.40
2022-12-22T16:54:21.420Z,4.50
2022-12-22T16:56:51.157Z,4.70
2022-12-22T16:59:18.385Z,4.40
2022-12-22T17:01:49.346Z,4.20
2022-12-22T17:04:26.200Z,4.10
2022-12-22T17:06:53.039Z,3.90
2022-12-22T17:09:26.255Z,3.60
2022-12-22T17:11:53.196Z,3.50
2022-12-22T17:14:19.815Z,3.40
2022-12-22T17:16:46.535Z,3.40
2022-12-22T17:19:13.197Z,3.10
2022-12-22T17:21:39.865Z,3.00
2022-12-22T17:24:07.539Z,2.90
2022-12-22T17:26:34.216Z,2.90
2022-12-22T17:29:02.031Z,2.80
2022-12-22T17:31:28.780Z,2.70
2022-12-22T17:33:55.499Z,2.60
2022-12-22T17:36:31.257Z,2.60
2022-12-22T17:38:58.091Z,2.50
2022-12-22T17:41:24.740Z,2.50
2022-12-22T17:43:51.368Z,2.40
2022-12-22T17:46:19.327Z,2.40
2022-12-22T17:48:46.029Z,3.20
2022-12-22T17:51:15.755Z,2.30
2022-12-22T17:53:42.477Z,2.30
2022-12-22T17:56:12.036Z,2.30
2022-12-22T17:58:38.864Z,2.40
2022-12-22T18:01:05.566Z,2.50
2022-12-22T18:03:32.380Z,2.50
2022-12-22T18:05:59.076Z,2.60
2022-12-22T18:08:25.725Z,3.60
2022-12-22T18:10:52.627Z,2.80
2022-12-22T18:13:22.839Z,2.80
2022-12-22T18:15:49.546Z,2.90
2022-12-22T18:18:16.671Z,3.00
2022-12-22T18:20:43.478Z,3.10
2022-12-22T18:23:12.587Z,3.10
2022-12-22T18:25:39.339Z,3.20
2022-12-22T18:28:06.344Z,3.30
2022-12-22T18:30:33.674Z,3.40
2022-12-22T18:33:00.455Z,3.50
2022-12-22T18:35:27.201Z,3.70
2022-12-22T18:37:54.544Z,3.90
2022-12-22T18:40:27.851Z,4.10
2022-12-22T18:42:55.233Z,4.40
2022-12-22T18:45:22.323Z,4.60
2022-12-22T18:47:49.010Z,4.90
2022-12-22T18:50:16.509Z,5.00
2022-12-22T18:52:43.882Z,5.20
2022-12-22T18:55:16.803Z,5.40
2022-12-22T18:57:47.079Z,5.50
2022-12-22T19:00:17.492Z,5.60
2022-12-22T19:02:44.970Z,5.80
2022-12-22T19:05:21.748Z,5.80
2022-12-22T19:07:49.167Z,6.00
2022-12-22T19:10:18.958Z,6.10
2022-12-22T19:12:49.698Z,6.30
2022-12-22T19:15:18.933Z,6.50
2022-12-22T19:17:45.663Z,6.60
2022-12-22T19:20:18.895Z,6.80
2022-12-22T19:22:45.697Z,6.90
2022-12-22T19:25:19.543Z,7.10
2022-12-22T19:27:46.269Z,7.30
2022-12-22T19:30:16.165Z,7.40
2022-12-22T19:32:46.116Z,7.50
2022-12-22T19:35:17.996Z,7.70
2022-12-22T19:37:45.419Z,7.90
2022-12-22T19:40:12.885Z,8.10
2022-12-22T19:42:40.838Z,8.30
2022-12-22T19:45:39.884Z,8.40
2022-12-22T19:48:11.922Z,8.60
2022-12-22T19:50:38.554Z,8.60
2022-12-22T19:53:05.185Z,8.70
2022-12-22T19:55:32.009Z,8.80
2022-12-22T19:57:58.701Z,8.80
2022-12-22T20:00:26.233Z,8.90
2022-12-22T20:02:53.846Z,9.00
2022-12-22T20:05:23.586Z,9.00
2022-12-22T20:07:50.617Z,9.10
2022-12-22T20:10:17.465Z,9.10
2022-12-22T20:12:47.076Z,9.10
2022-12-22T20:15:30.121Z,9.10
2022-12-22T20:17:57.101Z,9.00
2022-12-22T20:20:25.242Z,9.00
2022-12-22T20:22:53.076Z,8.90
2022-12-22T20:25:23.903Z,8.90
2022-12-22T20:27:50.705Z,8.90
2022-12-22T20:30:21.744Z,8.90
2022-12-22T20:32:48.548Z,8.90
2022-12-22T20:35:15.239Z,8.90
2022-12-22T20:37:41.951Z,8.90
2022-12-22T20:40:24.852Z,8.90
2022-12-22T20:42:51.661Z,8.90
2022-12-22T20:45:18.741Z,8.90
2022-12-22T20:47:45.346Z,8.90
2022-12-22T20:50:23.037Z,8.90
2022-12-22T20:52:49.784Z,8.90
2022-12-22T20:55:16.957Z,8.80
2022-12-22T20:57:44.130Z,8.80
2022-12-22T21:00:17.301Z,8.80
2022-12-22T21:02:44.116Z,8.80
2022-12-22T21:05:11.104Z,8.80
2022-12-22T21:07:37.792Z,8.80
2022-12-22T21:10:04.599Z,8.80
2022-12-22T21:12:31.338Z,8.70
2022-12-22T21:14:58.271Z,8.60
2022-12-22T21:17:24.945Z,8.60
2022-12-22T21:19:51.639Z,8.60
2022-12-22T21:22:18.434Z,8.80
2022-12-22T21:24:45.262Z,8.80
2022-12-22T21:27:19.464Z,8.80
2022-12-22T21:29:46.222Z,8.90
2022-12-22T21:32:16.149Z,8.90
2022-12-22T21:34:42.841Z,8.90
2022-12-22T21:37:12.736Z,9.00
2022-12-22T21:39:41.833Z,9.00
2022-12-22T21:42:09.734Z,9.10
2022-12-22T21:44:36.478Z,9.10
2022-12-22T21:47:03.198Z,9.10
2022-12-22T21:49:30.492Z,9.20
2022-12-22T21:51:57.579Z,9.20
2022-12-22T21:54:24.458Z,9.20
2022-12-22T21:56:51.424Z,9.20
2022-12-22T21:59:18.157Z,9.20
2022-12-22T22:01:45.394Z,9.10
2022-12-22T22:04:12.231Z,9.10
2022-12-22T22:06:39.169Z,9.10
2022-12-22T22:09:08.482Z,9.00
2022-12-22T22:11:58.090Z,9.00
2022-12-22T22:14:25.148Z,8.90
2022-12-22T22:16:51.809Z,8.90
2022-12-22T22:19:18.580Z,8.90
2022-12-22T22:21:45.569Z,8.90
2022-12-22T22:24:12.329Z,8.90
2022-12-22T22:26:39.028Z,8.90
2022-12-22T22:29:05.800Z,8.80
2022-12-22T22:31:32.597Z,8.90
2022-12-22T22:34:02.292Z,8.80
2022-12-22T22:36:28.931Z,8.80
2022-12-22T22:38:55.636Z,8.80
2022-12-22T22:41:22.422Z,8.80
2022-12-22T22:43:49.322Z,8.80
2022-12-22T22:46:16.081Z,8.80
2022-12-22T22:48:42.793Z,8.80
2022-12-22T22:51:10.211Z,8.80
2022-12-22T22:53:40.176Z,8.80
2022-12-22T22:56:06.976Z,8.70
2022-12-22T22:58:33.729Z,8.70
2022-12-22T23:01:04.257Z,8.70
2022-12-22T23:03:31.184Z,8.70
2022-12-22T23:06:04.915Z,8.70
2022-12-22T23:08:31.657Z,8.70
2022-12-22T23:10:58.574Z,8.60
2022-12-22T23:13:27.911Z,8.50
2022-12-22T23:15:59.023Z,8.40
2022-12-22T23:18:25.793Z,8.40
2022-12-22T23:20:52.543Z,8.20
2022-12-22T23:23:19.313Z,8.20
2022-12-22T23:25:46.471Z,8.10
2022-12-22T23:28:13.315Z,8.10
2022-12-22T23:30:40.290Z,7.90
2022-12-22T23:33:07.160Z,7.90
2022-12-22T23:35:46.523Z,7.90
2022-12-22T23:38:13.610Z,7.80
2022-12-22T23:40:55.711Z,7.80
2022-12-22T23:43:22.610Z,7.80
2022-12-22T23:45:49.285Z,7.80
2022-12-22T23:48:15.939Z,7.80
2022-12-22T23:50:45.435Z,7.90
2022-12-22T23:53:12.197Z,7.80
2022-12-22T23:55:42.819Z,7.80
2022-12-22T23:58:09.466Z,7.80
